createdAt,value
2022-09-06T00:04:08.124Z,28.30
2022-09-06T00:09:15.889Z,28.40
2022-09-06T00:14:21.520Z,28.70
2022-09-06T00:19:26.315Z,28.80
2022-09-06T00:24:31.599Z,29.00
2022-09-06T00:29:37.350Z,29.10
2022-09-06T00:34:42.542Z,29.20
2022-09-06T00:39:47.898Z,29.40
2022-09-06T00:44:53.693Z,29.60
2022-09-06T00:50:01.732Z,29.80
2022-09-06T00:55:08.637Z,29.90
2022-09-06T01:00:14.661Z,30.00
2022-09-06T01:05:20.748Z,30.20
2022-09-06T01:10:49.376Z,30.40
2022-09-06T01:16:29.833Z,30.50
2022-09-06T01:22:13.800Z,30.80
2022-09-06T01:27:35.451Z,30.90
2022-09-06T01:33:05.392Z,31.10
2022-09-06T01:38:12.270Z,31.10
2022-09-06T01:43:35.329Z,31.30
2022-09-06T01:49:10.912Z,31.50
2022-09-06T01:54:45.542Z,31.60
2022-09-06T02:00:05.979Z,31.80
2022-09-06T02:05:23.375Z,32.00
2022-09-06T02:10:45.513Z,32.20
2022-09-06T02:15:58.176Z,32.50
2022-09-06T02:21:05.051Z,32.70
2022-09-06T02:26:31.929Z,32.90
2022-09-06T02:31:49.619Z,33.20
2022-09-06T02:36:56.237Z,33.40
2022-09-06T02:42:03.083Z,33.60
2022-09-06T02:47:09.231Z,33.70
2022-09-06T02:52:15.256Z,33.70
2022-09-06T02:57:21.320Z,33.80
2022-09-06T03:02:27.570Z,33.80
2022-09-06T03:07:33.075Z,33.90
2022-09-06T03:12:38.181Z,34.00
2022-09-06T03:17:44.322Z,34.10
2022-09-06T03:22:51.079Z,34.30
2022-09-06T03:27:57.028Z,34.20
2022-09-06T03:33:03.083Z,34.20
2022-09-06T03:38:08.746Z,34.30
2022-09-06T03:43:15.074Z,34.30
2022-09-06T03:48:23.716Z,34.50
2022-09-06T03:53:31.503Z,34.30
2022-09-06T03:58:37.021Z,34.20
2022-09-06T04:03:43.063Z,34.40
2022-09-06T04:08:48.934Z,34.50
2022-09-06T04:13:54.407Z,34.20
2022-09-06T04:19:01.657Z,34.40
2022-09-06T04:24:07.643Z,34.40
2022-09-06T04:29:13.356Z,34.20
2022-09-06T04:34:28.406Z,34.20
2022-09-06T04:39:36.404Z,35.10
2022-09-06T04:44:42.177Z,35.90
2022-09-06T04:49:49.837Z,37.00
2022-09-06T04:54:55.371Z,38.00
2022-09-06T05:00:00.971Z,38.10
2022-09-06T05:05:06.760Z,37.80
2022-09-06T05:10:12.347Z,38.60
2022-09-06T05:15:18.714Z,38.50
2022-09-06T05:20:24.132Z,39.00
2022-09-06T05:25:29.201Z,38.80
2022-09-06T05:30:34.514Z,39.20
2022-09-06T05:35:40.089Z,39.10
2022-09-06T05:40:45.803Z,39.50
2022-09-06T05:45:51.634Z,40.30
2022-09-06T05:51:16.663Z,40.80
2022-09-06T05:56:23.807Z,42.50
2022-09-06T06:01:32.452Z,41.70
2022-09-06T06:06:38.215Z,41.30
2022-09-06T06:11:44.883Z,42.40
2022-09-06T06:16:50.430Z,42.00
2022-09-06T06:21:57.818Z,42.00
2022-09-06T06:27:03.191Z,43.60
2022-09-06T06:32:08.874Z,42.70
2022-09-06T06:37:17.272Z,42.90
2022-09-06T06:42:23.093Z,42.60
2022-09-06T06:47:30.906Z,42.30
2022-09-06T06:52:36.061Z,41.60
2022-09-06T06:57:41.507Z,42.00
2022-09-06T07:02:47.132Z,42.60
2022-09-06T07:07:52.775Z,42.10
2022-09-06T07:12:58.054Z,42.50
2022-09-06T07:18:03.758Z,42.10
2022-09-06T07:28:34.459Z,42.60
2022-09-06T07:33:40.815Z,43.70
2022-09-06T07:38:51.498Z,44.30
2022-09-06T07:44:00.092Z,43.50
2022-09-06T07:49:09.792Z,43.60
2022-09-06T07:54:31.378Z,43.50
2022-09-06T07:59:40.052Z,43.50
2022-09-06T08:04:51.526Z,43.40
2022-09-06T08:09:57.227Z,41.30
2022-09-06T08:15:02.813Z,39.80
2022-09-06T08:20:09.251Z,38.60
2022-09-06T08:25:14.779Z,37.60
2022-09-06T08:30:20.101Z,37.30
2022-09-06T08:35:25.763Z,37.00
2022-09-06T08:40:31.556Z,36.70
2022-09-06T08:45:37.495Z,36.30
2022-09-06T08:50:47.292Z,36.00
2022-09-06T08:55:52.460Z,35.90
2022-09-06T09:01:03.762Z,35.90
2022-09-06T09:06:11.833Z,35.80
2022-09-06T09:11:25.228Z,35.70
2022-09-06T09:16:31.050Z,35.50
2022-09-06T09:21:40.019Z,35.30
2022-09-06T09:27:06.503Z,35.00
2022-09-06T09:32:12.067Z,35.00
2022-09-06T09:42:52.904Z,34.60
2022-09-06T09:47:58.549Z,34.50
2022-09-06T09:53:15.882Z,34.40
2022-09-06T09:58:37.454Z,34.30
2022-09-06T10:09:37.123Z,34.30
2022-09-06T10:14:49.342Z,34.20
2022-09-06T10:19:55.928Z,34.10
2022-09-06T10:25:32.211Z,34.00
2022-09-06T10:30:43.123Z,34.00
2022-09-06T10:35:48.313Z,33.90
2022-09-06T10:41:05.866Z,33.80
2022-09-06T10:46:24.785Z,33.70
2022-09-06T10:51:47.294Z,33.60
2022-09-06T11:08:50.362Z,33.30
2022-09-06T11:14:01.406Z,33.20
2022-09-06T11:19:19.008Z,33.00
2022-09-06T11:24:46.024Z,32.90
2022-09-06T11:29:57.931Z,33.00
2022-09-06T11:35:08.830Z,32.80
2022-09-06T11:40:28.401Z,32.80
2022-09-06T11:45:51.208Z,32.80
2022-09-06T11:50:56.748Z,32.80
2022-09-06T11:56:05.069Z,32.70
2022-09-06T12:01:18.193Z,32.70
2022-09-06T12:06:35.267Z,32.70
2022-09-06T12:11:46.633Z,32.70
2022-09-06T12:17:06.215Z,32.70
2022-09-06T12:22:49.735Z,32.60
2022-09-06T12:28:00.577Z,32.50
2022-09-06T12:33:23.907Z,32.40
2022-09-06T12:38:30.142Z,32.30
2022-09-06T12:43:37.829Z,32.20
2022-09-06T12:48:45.959Z,32.20
2022-09-06T12:53:57.244Z,32.20
2022-09-06T12:59:18.597Z,31.90
2022-09-06T13:04:42.660Z,31.60
2022-09-06T13:09:52.338Z,31.40
2022-09-06T13:15:05.059Z,31.20
2022-09-06T13:20:29.681Z,31.10
2022-09-06T13:25:35.543Z,31.00
2022-09-06T13:30:50.101Z,30.90
2022-09-06T13:36:21.487Z,30.80
2022-09-06T13:41:30.319Z,30.80
2022-09-06T13:46:37.886Z,30.70
2022-09-06T13:51:44.938Z,30.70
2022-09-06T13:56:51.586Z,30.70
2022-09-06T14:02:11.420Z,30.70
2022-09-06T14:07:17.378Z,30.70
2022-09-06T14:12:23.073Z,30.70
2022-09-06T14:17:29.271Z,30.70
2022-09-06T14:22:35.107Z,30.70
2022-09-06T14:27:42.236Z,30.80
2022-09-06T14:32:48.056Z,30.80
2022-09-06T14:37:53.746Z,30.60
2022-09-06T14:42:59.875Z,30.50
2022-09-06T14:48:06.277Z,30.40
2022-09-06T14:53:36.784Z,30.30
2022-09-06T14:58:40.007Z,30.20
2022-09-06T15:03:49.974Z,30.10
2022-09-06T15:08:59.348Z,30.10
2022-09-06T15:14:09.337Z,30.10
2022-09-06T15:19:16.245Z,30.10
2022-09-06T15:24:23.559Z,30.10
2022-09-06T15:29:29.668Z,30.10
2022-09-06T15:34:35.308Z,30.10
2022-09-06T15:39:40.695Z,30.10
2022-09-06T15:44:46.152Z,30.10
2022-09-06T15:49:52.380Z,30.00
2022-09-06T15:55:16.582Z,29.90
2022-09-06T16:00:24.095Z,29.80
2022-09-06T16:10:55.386Z,29.90
2022-09-06T16:16:04.365Z,29.80
2022-09-06T16:21:12.059Z,29.80
2022-09-06T16:26:21.309Z,29.80
2022-09-06T16:31:28.591Z,29.70
2022-09-06T16:36:34.050Z,29.80
2022-09-06T16:41:42.289Z,29.80
2022-09-06T16:46:49.047Z,29.80
2022-09-06T16:51:54.647Z,29.90
2022-09-06T16:56:59.566Z,29.90
2022-09-06T17:02:05.402Z,29.80
2022-09-06T17:07:11.089Z,29.70
2022-09-06T17:12:17.171Z,29.70
2022-09-06T17:17:22.727Z,29.80
2022-09-06T17:22:28.771Z,29.80
2022-09-06T17:27:34.612Z,29.90
2022-09-06T17:32:40.255Z,29.90
2022-09-06T17:37:45.520Z,29.90
2022-09-06T17:42:50.870Z,29.90
2022-09-06T17:47:56.264Z,29.90
2022-09-06T17:53:01.826Z,30.00
2022-09-06T17:58:08.075Z,30.00
2022-09-06T18:03:14.012Z,29.90
2022-09-06T18:08:19.703Z,29.90
2022-09-06T18:13:25.532Z,29.90
2022-09-06T18:18:32.025Z,30.00
2022-09-06T18:23:38.256Z,30.00
2022-09-06T18:28:44.134Z,30.00
2022-09-06T18:33:49.867Z,30.10
2022-09-06T18:38:55.034Z,30.10
2022-09-06T18:44:02.183Z,30.10
2022-09-06T18:49:08.878Z,30.10
2022-09-06T18:54:15.121Z,30.10
2022-09-06T18:59:20.956Z,30.10
2022-09-06T19:04:26.864Z,30.10
2022-09-06T19:09:32.731Z,30.10
2022-09-06T19:14:38.537Z,30.20
2022-09-06T19:19:43.813Z,30.20
2022-09-06T19:24:49.283Z,30.30
2022-09-06T19:29:54.516Z,30.20
2022-09-06T19:35:00.286Z,30.20
2022-09-06T19:40:06.225Z,30.30
2022-09-06T19:45:12.280Z,30.30
2022-09-06T19:50:18.032Z,30.30
2022-09-06T19:55:23.304Z,30.30
2022-09-06T20:00:31.286Z,30.30
2022-09-06T20:05:39.959Z,30.40
2022-09-06T20:10:58.116Z,30.20
2022-09-06T20:16:06.279Z,30.10
2022-09-06T20:21:15.431Z,30.00
2022-09-06T20:26:21.579Z,30.00
2022-09-06T20:31:28.701Z,29.90
2022-09-06T20:36:34.565Z,29.80
2022-09-06T20:41:40.199Z,29.70
2022-09-06T20:46:45.826Z,29.60
2022-09-06T20:51:51.603Z,29.60
2022-09-06T20:56:56.937Z,29.50
2022-09-06T21:02:02.271Z,29.50
2022-09-06T21:07:08.522Z,29.40
2022-09-06T21:12:14.152Z,29.30
2022-09-06T21:17:19.222Z,29.30
2022-09-06T21:22:24.640Z,29.20
2022-09-06T21:27:29.412Z,29.20
2022-09-06T21:32:34.836Z,29.20
2022-09-06T21:37:40.229Z,29.20
2022-09-06T21:42:46.194Z,29.20
2022-09-06T21:47:52.077Z,29.20
2022-09-06T21:52:57.401Z,29.10
2022-09-06T21:58:02.775Z,29.10
2022-09-06T22:03:08.924Z,29.00
2022-09-06T22:08:14.316Z,28.90
2022-09-06T22:13:21.908Z,28.80
2022-09-06T22:18:27.741Z,28.80
2022-09-06T22:23:33.945Z,28.90
2022-09-06T22:28:40.353Z,28.90
2022-09-06T22:33:46.212Z,28.90
2022-09-06T22:38:54.598Z,28.90
2022-09-06T22:44:03.344Z,28.80
2022-09-06T22:49:09.934Z,28.80
2022-09-06T22:54:16.397Z,28.70
2022-09-06T22:59:26.056Z,28.80
2022-09-06T23:04:33.671Z,28.80
2022-09-06T23:09:40.113Z,28.80
2022-09-06T23:14:46.435Z,28.80
2022-09-06T23:19:51.620Z,28.90
2022-09-06T23:24:57.517Z,29.00
2022-09-06T23:30:04.841Z,29.00
2022-09-06T23:35:12.257Z,29.00
2022-09-06T23:40:18.499Z,29.00
2022-09-06T23:45:24.034Z,29.00
2022-09-06T23:50:29.863Z,29.10
2022-09-06T23:55:35.209Z,29.20
